Pronóstico
Mapa Interactivo
Aviación
Climatología
Hidrometeorología
Agrometeorología
Estaciones Automáticas
Transparencia
OMM WMO
Portada
Institución
Noticias
Imágenes
Tsunami
Historial
Boletines y Alertas
Contactos
Buscar Contenidos
Informe del Tiempo

SADR31 MDSD 242000Z
METAR

METAR MDPP 242000Z 08013KT 9999 SCT025 29/24 Q1014=
METAR MDST 242000Z 12010KT 100V170 9999 FEW022CB SCT025 32/20 Q1013
CB/S/SW=
METAR MDPC 242000Z 09011KT 9999 SCT019 SCT080 27/22 Q1015 RESH=
METAR MDBH 242000Z 13011KT 9999 FEW022CB FEW023 30/22 Q1014
CB/NE/E/W/NW/N=
METAR MDJB 242000Z 15010KT 9999 FEW020CB SCT020 31/23 Q1014 CB/NE=
METAR MDSD 242000Z 15010KT 9999 FEW020CB SCT022 29/23 Q1014
CB/NE/NW/N=
METAR MDLR 242000Z 15014KT 9999 SCT020 30/22 Q1015=
METAR MDCY 242000Z 09010KT 9999 FEW020CB SCT020 29/24 Q1015 CB/S=
METAR MDAB 242000Z 09008KT 9999 SCT020 30/25 Q1014=